Tyne Valley, Canada
Current Conditions -  °F | °C
As of 5:00 AM on Sunday 26 Oct 2014 (Local Time) from CYYG Reporting Station
Haze Haze  
Wind Chill: 41°   Ceiling: 700
Heat Index: 45°   Visibility: 6mi
Dew Point: 43°   Wind: 6mph
Humidity: 93%   Direction: 250°WSW
Pressure: 29.48"   Gusts: NA
Location:  46.57°N, 63.93°W
Report Text: CYYG 260800Z 25005KT 6SM BR BKN007 OVC015 07/06 A2948 RMK SF6SC2 SLP984
Loading
Personal Weather Stations






























Interactive Weather Map
Tropical Storm Tracking
New forecast layout! Learn more

10-Day Weather Forecast

Advertisements
Track Severe Weather on mobile